createdAt,value
2022-12-20T00:01:35.557Z,2.42
2022-12-20T00:03:38.699Z,2.42
2022-12-20T00:05:42.667Z,2.37
2022-12-20T00:07:45.428Z,2.34
2022-12-20T00:09:48.099Z,2.33
2022-12-20T00:11:50.685Z,2.35
2022-12-20T00:13:54.909Z,2.30
2022-12-20T00:16:06.087Z,2.27
2022-12-20T00:18:08.805Z,2.31
2022-12-20T00:20:12.063Z,2.36
2022-12-20T00:22:14.862Z,2.28
2022-12-20T00:24:23.949Z,2.45
2022-12-20T00:26:31.490Z,2.33
2022-12-20T00:28:36.207Z,2.36
2022-12-20T00:30:40.385Z,2.32
2022-12-20T00:32:43.531Z,2.25
2022-12-20T00:34:46.120Z,2.30
2022-12-20T00:36:48.891Z,2.26
2022-12-20T00:38:54.158Z,2.26
2022-12-20T00:41:04.081Z,2.24
2022-12-20T00:43:06.702Z,2.21
2022-12-20T00:45:10.377Z,2.22
2022-12-20T00:47:14.856Z,2.24
2022-12-20T00:49:17.579Z,2.19
2022-12-20T00:51:22.580Z,2.21
2022-12-20T00:53:26.727Z,2.18
2022-12-20T00:55:29.454Z,2.22
2022-12-20T00:57:32.030Z,2.22
2022-12-20T00:59:34.913Z,2.25
2022-12-20T01:01:37.606Z,2.25
2022-12-20T01:03:41.791Z,2.28
2022-12-20T01:05:51.483Z,2.30
2022-12-20T01:07:54.094Z,2.34
2022-12-20T01:09:56.687Z,2.34
2022-12-20T01:11:59.303Z,2.34
2022-12-20T01:14:03.953Z,2.39
2022-12-20T01:16:07.989Z,2.43
2022-12-20T01:18:10.588Z,2.45
2022-12-20T01:20:15.061Z,2.46
2022-12-20T01:22:17.664Z,2.47
2022-12-20T01:24:21.136Z,2.44
2022-12-20T01:26:25.941Z,2.46
2022-12-20T01:28:29.035Z,2.41
2022-12-20T01:30:31.622Z,2.36
2022-12-20T01:32:34.323Z,2.48
2022-12-20T01:34:36.983Z,2.47
2022-12-20T01:36:40.968Z,2.46
2022-12-20T01:38:43.931Z,2.46
2022-12-20T01:40:46.578Z,2.42
2022-12-20T01:42:49.180Z,2.44
2022-12-20T01:45:01.442Z,2.38
2022-12-20T01:47:04.466Z,2.41
2022-12-20T01:49:12.509Z,2.44
2022-12-20T01:51:15.316Z,2.47
2022-12-20T01:53:21.562Z,2.48
2022-12-20T01:55:27.308Z,2.47
2022-12-20T01:57:36.051Z,2.49
2022-12-20T01:59:41.537Z,2.48
2022-12-20T02:01:45.667Z,2.50
2022-12-20T02:03:48.681Z,2.47
2022-12-20T02:05:51.342Z,2.49
2022-12-20T02:07:56.185Z,2.52
2022-12-20T02:10:02.493Z,2.57
2022-12-20T02:12:11.895Z,2.56
2022-12-20T02:14:27.188Z,2.54
2022-12-20T02:16:36.382Z,2.51
2022-12-20T02:18:47.211Z,2.51
2022-12-20T02:21:29.201Z,2.47
2022-12-20T02:24:09.516Z,2.44
2022-12-20T02:26:32.896Z,2.48
2022-12-20T02:28:56.792Z,2.47
2022-12-20T02:31:06.402Z,2.49
2022-12-20T02:33:12.515Z,2.48
2022-12-20T02:35:19.301Z,2.43
2022-12-20T02:37:22.114Z,2.52
2022-12-20T02:39:28.608Z,2.45
2022-12-20T02:41:35.108Z,2.46
2022-12-20T02:43:58.154Z,2.43
2022-12-20T02:46:04.430Z,2.44
2022-12-20T02:48:09.525Z,2.43
2022-12-20T02:50:12.739Z,2.44
2022-12-20T02:52:16.329Z,2.40
2022-12-20T02:54:19.553Z,2.42
2022-12-20T02:56:26.662Z,2.44
2022-12-20T02:58:33.218Z,2.43
2022-12-20T03:00:41.882Z,2.46
2022-12-20T03:03:04.075Z,2.44
2022-12-20T03:05:07.247Z,2.45
2022-12-20T03:07:12.761Z,2.67
2022-12-20T03:09:15.419Z,2.61
2022-12-20T03:11:18.096Z,2.47
2022-12-20T03:13:21.247Z,2.42
2022-12-20T03:15:23.887Z,2.36
2022-12-20T03:17:26.523Z,2.34
2022-12-20T03:19:31.151Z,2.34
2022-12-20T03:21:33.758Z,2.36
2022-12-20T03:23:36.378Z,2.37
2022-12-20T03:25:39.005Z,2.37
2022-12-20T03:27:41.638Z,2.39
2022-12-20T03:29:45.903Z,2.39
2022-12-20T03:31:48.480Z,2.45
2022-12-20T03:33:51.181Z,2.42
2022-12-20T03:35:55.137Z,2.47
2022-12-20T03:37:57.761Z,2.45
2022-12-20T03:40:00.539Z,2.49
2022-12-20T03:42:03.126Z,2.45
2022-12-20T03:44:05.967Z,2.47
2022-12-20T03:46:08.847Z,2.48
2022-12-20T03:48:11.479Z,2.48
2022-12-20T03:50:14.072Z,2.48
2022-12-20T03:52:18.007Z,2.38
2022-12-20T03:54:20.649Z,2.37
2022-12-20T03:56:23.341Z,2.37
2022-12-20T03:58:26.371Z,2.33
2022-12-20T04:00:29.379Z,2.38
2022-12-20T04:02:32.093Z,2.40
2022-12-20T04:04:34.928Z,2.42
2022-12-20T04:06:37.547Z,2.45
2022-12-20T04:08:41.513Z,2.48
2022-12-20T04:10:58.033Z,2.47
2022-12-20T04:13:00.626Z,2.45
2022-12-20T04:15:03.262Z,2.50
2022-12-20T04:17:05.876Z,2.56
2022-12-20T04:19:08.467Z,2.57
2022-12-20T04:21:12.657Z,2.61
2022-12-20T04:23:15.243Z,2.64
2022-12-20T04:25:21.579Z,2.67
2022-12-20T04:27:24.173Z,2.68
2022-12-20T04:29:26.801Z,2.70
2022-12-20T04:31:29.513Z,2.89
2022-12-20T04:33:32.433Z,2.83
2022-12-20T04:35:35.027Z,2.85
2022-12-20T04:37:37.590Z,2.84
2022-12-20T04:39:40.154Z,2.88
2022-12-20T04:41:44.170Z,2.91
2022-12-20T04:43:46.757Z,2.92
2022-12-20T04:45:52.392Z,2.93
2022-12-20T04:47:55.013Z,2.91
2022-12-20T04:49:57.597Z,2.94
2022-12-20T04:52:20.179Z,3.00
2022-12-20T04:54:21.786Z,3.08
2022-12-20T04:56:25.469Z,3.10
2022-12-20T04:58:29.961Z,3.06
2022-12-20T05:00:32.565Z,3.10
2022-12-20T05:02:35.388Z,3.12
2022-12-20T05:04:38.212Z,3.10
2022-12-20T05:06:40.803Z,3.09
2022-12-20T05:08:43.933Z,3.07
2022-12-20T05:10:46.579Z,3.08
2022-12-20T05:12:49.169Z,3.06
2022-12-20T05:14:53.159Z,3.06
2022-12-20T05:16:55.738Z,3.08
2022-12-20T05:18:58.314Z,3.11
2022-12-20T05:21:19.629Z,3.09
2022-12-20T05:23:51.195Z,3.15
2022-12-20T05:26:12.509Z,3.12
2022-12-20T05:28:15.162Z,3.13
2022-12-20T05:30:19.385Z,3.11
2022-12-20T05:32:22.032Z,3.13
2022-12-20T05:34:24.760Z,3.16
2022-12-20T05:36:27.415Z,3.16
2022-12-20T05:38:30.081Z,3.17
2022-12-20T05:40:32.719Z,3.16
2022-12-20T05:42:35.607Z,3.18
2022-12-20T05:44:38.244Z,3.20
2022-12-20T05:46:42.514Z,3.20
2022-12-20T05:48:45.182Z,3.21
2022-12-20T05:50:48.586Z,3.28
2022-12-20T05:52:51.224Z,3.21
2022-12-20T05:54:54.072Z,3.22
2022-12-20T05:56:56.698Z,3.21
2022-12-20T05:58:59.906Z,3.23
2022-12-20T06:01:03.077Z,3.22
2022-12-20T06:03:07.187Z,3.22
2022-12-20T06:05:10.371Z,3.22
2022-12-20T06:07:13.269Z,3.19
2022-12-20T06:09:15.955Z,3.21
2022-12-20T06:11:18.640Z,3.20
2022-12-20T06:13:21.664Z,3.20
2022-12-20T06:15:24.287Z,3.17
2022-12-20T06:17:28.025Z,3.18
2022-12-20T06:19:32.026Z,3.18
2022-12-20T06:21:34.628Z,3.38
2022-12-20T06:23:37.240Z,3.38
2022-12-20T06:25:39.977Z,3.39
2022-12-20T06:27:42.625Z,3.33
2022-12-20T06:29:51.758Z,3.30
2022-12-20T06:31:54.481Z,3.33
2022-12-20T06:33:57.177Z,3.38
2022-12-20T06:36:01.161Z,3.32
2022-12-20T06:38:03.758Z,3.30
2022-12-20T06:40:07.867Z,3.27
2022-12-20T06:42:10.543Z,3.32
2022-12-20T06:44:13.156Z,3.33
2022-12-20T06:46:15.851Z,3.32
2022-12-20T06:48:18.540Z,3.33
2022-12-20T06:50:21.172Z,3.33
2022-12-20T06:52:26.101Z,3.36
2022-12-20T06:54:28.758Z,3.34
2022-12-20T06:56:36.091Z,3.35
2022-12-20T06:58:41.947Z,3.34
2022-12-20T07:00:44.564Z,3.32
2022-12-20T07:02:47.287Z,3.33
2022-12-20T07:04:49.951Z,3.34
2022-12-20T07:06:52.592Z,3.34
2022-12-20T07:08:56.799Z,3.36
2022-12-20T07:11:05.514Z,3.36
2022-12-20T07:13:09.222Z,3.40
2022-12-20T07:15:12.237Z,3.43
2022-12-20T07:17:14.857Z,3.44
2022-12-20T07:19:17.567Z,3.49
2022-12-20T07:21:21.003Z,3.40
2022-12-20T07:23:23.624Z,3.43
2022-12-20T07:25:27.611Z,3.49
2022-12-20T07:27:30.230Z,3.49
2022-12-20T07:29:32.890Z,3.43
2022-12-20T07:31:35.613Z,3.48
2022-12-20T07:33:38.838Z,3.41
2022-12-20T07:35:41.428Z,3.42
2022-12-20T07:37:44.718Z,3.41
2022-12-20T07:39:47.343Z,3.39
2022-12-20T07:41:56.002Z,3.41
2022-12-20T07:43:59.501Z,3.53
2022-12-20T07:46:02.790Z,3.39
2022-12-20T07:48:12.376Z,3.44
2022-12-20T07:50:16.449Z,3.40
2022-12-20T07:52:22.368Z,3.41
2022-12-20T07:54:28.873Z,3.51
2022-12-20T07:56:40.528Z,3.43
2022-12-20T07:58:46.086Z,3.46
2022-12-20T08:00:48.766Z,3.42
2022-12-20T08:02:57.225Z,3.49
2022-12-20T08:05:00.743Z,3.49
2022-12-20T08:07:04.218Z,3.49
2022-12-20T08:09:07.875Z,3.48
2022-12-20T08:11:11.977Z,3.50
2022-12-20T08:13:15.290Z,3.49
2022-12-20T08:15:22.461Z,3.43
2022-12-20T08:17:25.162Z,3.47
2022-12-20T08:19:32.179Z,3.47
2022-12-20T08:21:35.609Z,3.47
2022-12-20T08:23:38.340Z,3.46
2022-12-20T08:25:42.021Z,3.48
2022-12-20T08:27:45.011Z,3.45
2022-12-20T08:29:47.593Z,3.47
2022-12-20T08:31:52.351Z,3.50
2022-12-20T08:33:56.012Z,3.46
2022-12-20T08:35:59.276Z,3.47
2022-12-20T08:38:01.933Z,3.49
2022-12-20T08:40:05.343Z,3.55
2022-12-20T08:42:08.117Z,3.54
2022-12-20T08:44:10.816Z,3.58
2022-12-20T08:46:13.930Z,3.61
2022-12-20T08:48:17.972Z,3.60
2022-12-20T08:50:20.575Z,3.58
2022-12-20T08:52:23.195Z,3.59
2022-12-20T08:54:25.818Z,3.60
2022-12-20T08:56:28.544Z,3.58
2022-12-20T08:58:31.132Z,3.66
2022-12-20T09:00:33.949Z,3.63
2022-12-20T09:02:38.146Z,3.65
2022-12-20T09:04:42.378Z,3.69
2022-12-20T09:06:44.964Z,3.70
2022-12-20T09:08:48.619Z,3.68
2022-12-20T09:10:51.337Z,3.70
2022-12-20T09:12:54.108Z,3.70
2022-12-20T09:14:58.378Z,3.82
2022-12-20T09:17:01.060Z,3.77
2022-12-20T09:19:05.925Z,3.84
2022-12-20T09:21:12.151Z,3.83
2022-12-20T09:23:14.719Z,3.84
2022-12-20T09:25:17.350Z,3.85
2022-12-20T09:27:19.922Z,3.94
2022-12-20T09:29:28.266Z,3.93
2022-12-20T09:31:31.100Z,3.93
2022-12-20T09:33:34.986Z,3.94
2022-12-20T09:35:37.557Z,3.96
2022-12-20T09:37:42.466Z,3.99
2022-12-20T09:39:45.056Z,4.11
2022-12-20T09:41:47.824Z,4.09
2022-12-20T09:43:50.853Z,4.08
2022-12-20T09:45:57.132Z,4.14
2022-12-20T09:47:59.777Z,4.19
2022-12-20T09:50:03.670Z,4.23
2022-12-20T09:52:29.911Z,4.23
2022-12-20T09:54:42.035Z,4.39
2022-12-20T09:56:48.017Z,4.38
2022-12-20T09:59:01.849Z,4.45
2022-12-20T10:01:20.187Z,4.56
2022-12-20T10:03:30.277Z,4.54
2022-12-20T10:05:41.705Z,4.61
2022-12-20T10:07:53.703Z,4.57
2022-12-20T10:10:11.364Z,4.55
2022-12-20T10:12:25.450Z,4.55
2022-12-20T10:14:45.296Z,4.54
2022-12-20T10:16:51.725Z,4.55
2022-12-20T10:19:06.220Z,4.56
2022-12-20T10:21:17.344Z,4.56
2022-12-20T10:23:32.822Z,4.67
2022-12-20T10:25:37.726Z,4.65
2022-12-20T10:27:43.005Z,4.71
2022-12-20T10:29:46.430Z,4.76
2022-12-20T10:31:53.587Z,4.79
2022-12-20T10:33:59.102Z,4.71
2022-12-20T10:36:24.232Z,4.65
2022-12-20T10:38:45.166Z,4.68
2022-12-20T10:43:24.362Z,4.73
2022-12-20T10:45:36.729Z,4.68
2022-12-20T10:47:42.841Z,4.65
2022-12-20T10:49:45.432Z,4.64
2022-12-20T10:51:54.058Z,4.61
2022-12-20T10:54:01.128Z,4.60
2022-12-20T10:56:18.462Z,4.59
2022-12-20T10:58:31.928Z,4.56
2022-12-20T11:00:35.167Z,4.56
2022-12-20T11:02:42.388Z,4.57
2022-12-20T11:04:58.813Z,4.59
2022-12-20T11:07:03.166Z,4.60
2022-12-20T11:09:23.789Z,4.60
2022-12-20T11:11:28.628Z,4.60
2022-12-20T11:13:31.246Z,4.59
2022-12-20T11:15:35.913Z,4.61
2022-12-20T11:17:42.420Z,4.61
2022-12-20T11:20:01.190Z,4.60
2022-12-20T11:22:14.817Z,4.61
2022-12-20T11:24:25.038Z,4.63
2022-12-20T11:26:40.248Z,4.68
2022-12-20T11:28:58.067Z,4.72
2022-12-20T11:31:12.343Z,4.73
2022-12-20T11:33:40.131Z,4.74
2022-12-20T11:35:51.903Z,4.76
2022-12-20T11:38:07.282Z,4.79
2022-12-20T11:40:28.146Z,4.85
2022-12-20T11:42:45.852Z,4.87
2022-12-20T11:45:05.140Z,4.88
2022-12-20T11:47:33.545Z,4.91
2022-12-20T11:49:58.203Z,4.94
2022-12-20T11:52:07.544Z,4.96
2022-12-20T11:54:14.007Z,5.00
2022-12-20T11:56:27.117Z,5.01
2022-12-20T11:58:37.911Z,5.04
2022-12-20T12:00:42.929Z,5.13
2022-12-20T12:02:58.400Z,5.16
2022-12-20T12:05:05.823Z,5.15
2022-12-20T12:07:14.744Z,5.14
2022-12-20T12:09:26.015Z,5.12
2022-12-20T12:12:05.143Z,5.10
2022-12-20T12:13:58.708Z,5.09
2022-12-20T12:16:07.320Z,5.08
2022-12-20T12:18:20.438Z,5.08
2022-12-20T12:20:31.022Z,5.09
2022-12-20T12:22:37.469Z,5.12
2022-12-20T12:24:44.364Z,5.14
2022-12-20T12:26:46.970Z,5.17
2022-12-20T12:28:55.020Z,5.20
2022-12-20T12:31:04.634Z,5.25
2022-12-20T12:33:17.693Z,5.35
2022-12-20T12:35:51.560Z,5.41
2022-12-20T12:38:04.501Z,5.41
2022-12-20T12:40:31.628Z,5.45
2022-12-20T12:42:57.982Z,5.43
2022-12-20T12:45:04.859Z,5.43
2022-12-20T12:47:16.413Z,5.41
2022-12-20T12:49:23.052Z,5.43
2022-12-20T12:51:30.854Z,5.41
2022-12-20T12:53:37.862Z,5.38
2022-12-20T12:55:43.474Z,5.41
2022-12-20T12:57:56.451Z,5.40
2022-12-20T12:59:59.067Z,5.39
2022-12-20T13:02:37.295Z,5.39
2022-12-20T13:04:55.467Z,5.36
2022-12-20T13:07:01.771Z,5.36
2022-12-20T13:09:20.792Z,5.36
2022-12-20T13:11:33.031Z,5.38
2022-12-20T13:13:35.787Z,5.36
2022-12-20T13:16:07.485Z,5.35
2022-12-20T13:18:24.839Z,5.36
2022-12-20T13:20:29.210Z,5.41
2022-12-20T13:22:31.871Z,5.45
2022-12-20T13:24:42.296Z,5.47
2022-12-20T13:26:53.632Z,5.45
2022-12-20T13:28:58.992Z,5.43
2022-12-20T13:31:34.442Z,5.42
2022-12-20T13:33:42.031Z,5.42
2022-12-20T13:36:03.787Z,5.39
2022-12-20T13:38:56.457Z,5.38
2022-12-20T13:41:01.157Z,5.38
2022-12-20T13:43:08.285Z,5.38
2022-12-20T13:45:15.539Z,5.39
2022-12-20T13:47:45.040Z,5.37
2022-12-20T13:49:48.988Z,5.37
2022-12-20T13:52:09.127Z,5.36
2022-12-20T13:54:25.218Z,5.34
2022-12-20T13:56:37.347Z,5.35
2022-12-20T13:58:45.006Z,5.35
2022-12-20T14:00:48.639Z,5.35
2022-12-20T14:02:51.490Z,5.44
2022-12-20T14:05:01.303Z,5.48
2022-12-20T14:07:04.037Z,5.54
2022-12-20T14:09:31.780Z,5.58
2022-12-20T14:11:34.329Z,5.62
2022-12-20T14:13:37.076Z,5.66
2022-12-20T14:15:39.605Z,5.69
2022-12-20T14:17:44.806Z,5.72
2022-12-20T14:19:47.614Z,5.74
2022-12-20T14:21:52.329Z,5.77
2022-12-20T14:23:57.706Z,5.81
2022-12-20T14:26:02.856Z,5.80
2022-12-20T14:28:06.347Z,5.81
2022-12-20T14:30:27.970Z,5.81
2022-12-20T14:32:30.605Z,5.79
2022-12-20T14:34:41.584Z,5.80
2022-12-20T14:36:46.569Z,5.79
2022-12-20T14:38:52.733Z,5.78
2022-12-20T14:40:56.028Z,5.75
2022-12-20T14:42:58.572Z,5.72
2022-12-20T14:45:07.000Z,5.70
2022-12-20T14:47:16.874Z,5.66
2022-12-20T14:49:23.625Z,5.64
2022-12-20T14:51:26.229Z,5.61
2022-12-20T14:53:28.981Z,5.59
2022-12-20T14:55:37.525Z,5.59
2022-12-20T14:57:45.431Z,5.54
2022-12-20T15:00:00.100Z,5.56
2022-12-20T15:02:35.398Z,5.58
2022-12-20T15:04:38.076Z,5.52
2022-12-20T15:06:44.432Z,5.51
2022-12-20T15:08:47.000Z,5.47
2022-12-20T15:11:03.943Z,5.41
2022-12-20T15:13:13.928Z,5.39
2022-12-20T15:15:29.381Z,5.39
2022-12-20T15:17:32.496Z,5.36
2022-12-20T15:19:40.434Z,5.37
2022-12-20T15:21:45.727Z,5.39
2022-12-20T15:23:51.483Z,5.35
2022-12-20T15:25:54.113Z,5.28
2022-12-20T15:27:57.995Z,5.31
2022-12-20T15:30:00.580Z,5.34
2022-12-20T15:32:09.292Z,5.32
2022-12-20T15:34:15.392Z,5.29
2022-12-20T15:36:20.309Z,5.25
2022-12-20T15:38:40.725Z,5.24
2022-12-20T15:40:49.563Z,5.20
2022-12-20T15:42:52.732Z,5.24
2022-12-20T15:44:57.543Z,5.28
2022-12-20T15:47:00.220Z,5.26
2022-12-20T15:49:02.882Z,5.23
2022-12-20T15:51:16.341Z,5.26
2022-12-20T15:53:22.683Z,5.26
2022-12-20T15:55:25.256Z,5.26
2022-12-20T15:57:28.801Z,5.25
2022-12-20T15:59:58.901Z,5.26
2022-12-20T16:01:56.276Z,5.25
2022-12-20T16:03:59.682Z,5.26
2022-12-20T16:06:02.332Z,5.25
2022-12-20T16:08:05.831Z,5.29
2022-12-20T16:10:10.946Z,5.22
2022-12-20T16:12:16.022Z,5.34
2022-12-20T16:14:21.127Z,5.26
2022-12-20T16:16:27.201Z,5.24
2022-12-20T16:18:34.642Z,5.23
2022-12-20T16:20:38.425Z,5.17
2022-12-20T16:22:41.216Z,5.22
2022-12-20T16:24:44.180Z,5.21
2022-12-20T16:26:47.155Z,5.22
2022-12-20T16:28:51.135Z,5.23
2022-12-20T16:30:53.888Z,5.26
2022-12-20T16:32:59.032Z,5.25
2022-12-20T16:35:03.002Z,5.23
2022-12-20T16:37:06.299Z,5.48
2022-12-20T16:39:10.053Z,5.37
2022-12-20T16:41:15.266Z,5.34
2022-12-20T16:43:18.294Z,5.31
2022-12-20T16:45:23.748Z,5.25
2022-12-20T16:47:26.357Z,5.24
2022-12-20T16:49:28.911Z,5.22
2022-12-20T16:51:34.901Z,5.41
2022-12-20T16:54:02.175Z,5.41
2022-12-20T16:56:01.048Z,5.34
2022-12-20T16:58:03.610Z,5.33
2022-12-20T17:00:07.761Z,5.32
2022-12-20T17:02:22.900Z,5.26
2022-12-20T17:04:26.746Z,5.26
2022-12-20T17:06:34.147Z,5.25
2022-12-20T17:08:52.034Z,5.25
2022-12-20T17:10:54.609Z,5.24
2022-12-20T17:12:57.636Z,5.24
2022-12-20T17:15:00.219Z,5.26
2022-12-20T17:17:02.784Z,5.26
2022-12-20T17:19:05.479Z,5.25
2022-12-20T17:21:21.970Z,5.20
2022-12-20T17:23:44.118Z,5.24
2022-12-20T17:25:52.081Z,5.21
2022-12-20T17:27:57.011Z,5.18
2022-12-20T17:29:59.837Z,5.19
2022-12-20T17:32:03.600Z,5.21
2022-12-20T17:34:07.262Z,5.24
2022-12-20T17:36:10.443Z,5.22
2022-12-20T17:38:12.989Z,5.21
2022-12-20T17:40:17.636Z,5.37
2022-12-20T17:42:24.292Z,5.24
2022-12-20T17:44:29.920Z,5.16
2022-12-20T17:46:33.589Z,5.31
2022-12-20T17:48:40.406Z,5.21
2022-12-20T17:50:46.179Z,5.17
2022-12-20T17:52:49.426Z,5.14
2022-12-20T17:54:52.003Z,5.16
2022-12-20T17:56:57.082Z,5.14
2022-12-20T17:59:01.014Z,5.11
2022-12-20T18:01:04.225Z,5.08
2022-12-20T18:03:07.071Z,5.12
2022-12-20T18:05:12.090Z,5.09
2022-12-20T18:07:14.688Z,5.07
2022-12-20T18:09:19.557Z,5.05
2022-12-20T18:11:23.361Z,5.03
2022-12-20T18:13:27.269Z,4.96
2022-12-20T18:15:29.834Z,4.94
2022-12-20T18:17:32.673Z,4.94
2022-12-20T18:19:35.263Z,4.98
2022-12-20T18:21:37.811Z,5.01
2022-12-20T18:23:41.136Z,4.99
2022-12-20T18:25:44.511Z,5.04
2022-12-20T18:27:47.193Z,5.03
2022-12-20T18:29:51.077Z,5.01
2022-12-20T18:31:53.644Z,4.95
2022-12-20T18:33:58.530Z,4.95
2022-12-20T18:36:03.093Z,4.93
2022-12-20T18:38:05.913Z,4.97
2022-12-20T18:40:09.953Z,4.98
2022-12-20T18:42:12.495Z,5.01
2022-12-20T18:44:15.364Z,5.02
2022-12-20T18:46:21.403Z,5.03
2022-12-20T18:48:26.486Z,5.03
2022-12-20T18:50:29.033Z,5.00
2022-12-20T18:52:32.414Z,5.06
2022-12-20T18:54:35.540Z,5.09
2022-12-20T18:56:39.434Z,5.10
2022-12-20T18:58:42.808Z,5.04
2022-12-20T19:00:45.437Z,5.07
2022-12-20T19:02:49.723Z,5.11
2022-12-20T19:04:52.379Z,5.09
2022-12-20T19:06:54.973Z,5.09
2022-12-20T19:08:58.307Z,5.09
2022-12-20T19:11:02.090Z,5.13
2022-12-20T19:13:06.169Z,5.17
2022-12-20T19:15:09.401Z,5.13
2022-12-20T19:17:11.948Z,5.07
2022-12-20T19:19:15.818Z,5.04
2022-12-20T19:21:21.598Z,5.07
2022-12-20T19:23:24.137Z,5.04
2022-12-20T19:25:26.692Z,5.08
2022-12-20T19:27:29.693Z,5.11
2022-12-20T19:29:32.265Z,5.11
2022-12-20T19:31:37.417Z,5.11
2022-12-20T19:33:41.472Z,5.12
2022-12-20T19:35:55.334Z,5.10
2022-12-20T19:37:58.864Z,5.10
2022-12-20T19:40:01.440Z,5.08
2022-12-20T19:42:24.196Z,5.13
2022-12-20T19:44:26.709Z,5.12
2022-12-20T19:46:30.369Z,5.12
2022-12-20T19:48:34.548Z,5.14
2022-12-20T19:50:37.123Z,5.12
2022-12-20T19:52:41.027Z,5.14
2022-12-20T19:54:44.076Z,5.14
2022-12-20T19:56:46.931Z,5.20
2022-12-20T19:58:49.859Z,5.24
2022-12-20T20:00:52.513Z,5.35
2022-12-20T20:02:55.257Z,5.40
2022-12-20T20:04:57.916Z,5.45
2022-12-20T20:07:00.446Z,5.52
2022-12-20T20:09:04.432Z,5.52
2022-12-20T20:11:09.783Z,5.54
2022-12-20T20:13:12.737Z,5.52
2022-12-20T20:15:15.544Z,5.53
2022-12-20T20:17:18.079Z,5.58
2022-12-20T20:19:21.449Z,5.60
2022-12-20T20:21:24.542Z,5.61
2022-12-20T20:23:28.364Z,5.53
2022-12-20T20:25:35.307Z,5.54
2022-12-20T20:27:38.093Z,5.66
2022-12-20T20:29:40.852Z,5.78
2022-12-20T20:31:43.527Z,5.74
2022-12-20T20:33:46.679Z,5.76
2022-12-20T20:35:55.706Z,5.79
2022-12-20T20:37:58.495Z,5.73
2022-12-20T20:40:01.118Z,5.69
2022-12-20T20:42:05.279Z,5.69
2022-12-20T20:44:07.871Z,5.66
2022-12-20T20:46:12.717Z,5.67
2022-12-20T20:48:15.901Z,5.63
2022-12-20T20:50:18.634Z,5.63
2022-12-20T20:52:21.386Z,5.65
2022-12-20T20:54:23.959Z,5.64
2022-12-20T20:56:26.527Z,5.61
2022-12-20T20:58:30.501Z,5.61
2022-12-20T21:00:33.261Z,5.59
2022-12-20T21:02:35.934Z,5.58
2022-12-20T21:04:38.632Z,5.58
2022-12-20T21:06:42.133Z,5.60
2022-12-20T21:08:44.986Z,5.60
2022-12-20T21:10:47.599Z,5.62
2022-12-20T21:12:50.203Z,5.62
2022-12-20T21:15:21.383Z,5.64
2022-12-20T21:17:16.698Z,5.60
2022-12-20T21:19:19.386Z,5.59
2022-12-20T21:21:22.701Z,5.59
2022-12-20T21:23:25.248Z,5.59
2022-12-20T21:25:27.944Z,5.58
2022-12-20T21:27:30.829Z,5.59
2022-12-20T21:29:33.707Z,5.57
2022-12-20T21:31:37.798Z,5.58
2022-12-20T21:33:40.584Z,5.59
2022-12-20T21:35:46.075Z,5.60
2022-12-20T21:37:53.306Z,5.52
2022-12-20T21:39:55.868Z,5.51
2022-12-20T21:42:01.867Z,5.51
2022-12-20T21:44:05.288Z,5.48
2022-12-20T21:46:11.107Z,5.48
2022-12-20T21:48:15.160Z,5.47
2022-12-20T21:50:17.933Z,5.48
2022-12-20T21:52:20.513Z,5.50
2022-12-20T21:54:23.698Z,5.50
2022-12-20T21:56:27.940Z,5.51
2022-12-20T21:58:31.541Z,5.49
2022-12-20T22:00:34.156Z,5.44
2022-12-20T22:02:36.966Z,5.44
2022-12-20T22:04:41.103Z,5.41
2022-12-20T22:06:44.898Z,5.41
2022-12-20T22:08:47.757Z,5.35
2022-12-20T22:11:00.006Z,5.38
2022-12-20T22:13:02.602Z,5.39
2022-12-20T22:15:05.860Z,5.40
2022-12-20T22:17:08.435Z,5.44
2022-12-20T22:19:14.648Z,5.40
2022-12-20T22:21:20.821Z,5.36
2022-12-20T22:23:23.346Z,5.37
2022-12-20T22:25:26.606Z,5.26
2022-12-20T22:27:29.184Z,5.28
2022-12-20T22:29:32.019Z,5.29
2022-12-20T22:31:35.976Z,5.28
2022-12-20T22:33:39.150Z,5.30
2022-12-20T22:35:41.759Z,5.40
2022-12-20T22:37:45.659Z,5.43
2022-12-20T22:39:49.109Z,5.31
2022-12-20T22:41:51.681Z,5.28
2022-12-20T22:43:54.778Z,5.22
2022-12-20T22:45:58.261Z,5.17
2022-12-20T22:48:00.950Z,5.17
2022-12-20T22:50:03.761Z,5.16
2022-12-20T22:52:07.923Z,5.14
2022-12-20T22:54:12.043Z,5.15
2022-12-20T22:56:15.326Z,5.19
2022-12-20T22:58:17.890Z,5.17
2022-12-20T23:00:20.843Z,5.16
2022-12-20T23:02:23.512Z,5.16
2022-12-20T23:04:26.239Z,5.15
2022-12-20T23:06:28.848Z,5.13
2022-12-20T23:08:34.027Z,5.12
2022-12-20T23:10:58.089Z,5.15
2022-12-20T23:13:18.122Z,5.14
2022-12-20T23:15:46.501Z,5.14
2022-12-20T23:17:49.061Z,5.15
2022-12-20T23:20:09.095Z,5.15
2022-12-20T23:22:29.186Z,5.20
2022-12-20T23:24:31.888Z,5.22
2022-12-20T23:26:38.427Z,5.26
2022-12-20T23:28:41.009Z,5.18
2022-12-20T23:30:43.586Z,5.11
2022-12-20T23:32:46.353Z,5.08
2022-12-20T23:34:48.873Z,5.06
2022-12-20T23:36:51.395Z,5.10
2022-12-20T23:38:53.958Z,5.20
2022-12-20T23:40:56.505Z,5.22
2022-12-20T23:43:00.538Z,5.31
2022-12-20T23:45:03.191Z,5.35
2022-12-20T23:47:05.870Z,5.39
2022-12-20T23:49:08.414Z,5.49
2022-12-20T23:51:13.894Z,5.54
2022-12-20T23:53:16.579Z,5.63
2022-12-20T23:55:19.116Z,5.74
2022-12-20T23:57:21.638Z,5.75
2022-12-20T23:59:25.828Z,5.79
